Terminal Aerodrome Forecast
Issued by NWS Sioux Falls, SD

Home | Current Version | Previous Version | Graphics & Text | Print | Product List | Glossary Off
Versions: 1 2 3 4 5 6 7 8 9 10 11 12 13 14 15 16 17 18 19 20 21 22 23 24 25 26 27 28 29 30 31 32 33 34 35

000
FTUS43 KFSD 012320
TAFSUX
TAF
KSUX 012320Z 0200/0224 25004KT P6SM SCT040
     FM020300 24005KT P6SM -SHRA BKN040
     FM020500 28004KT P6SM SCT040
      TEMPO 0210/0213 4SM BR
     FM021400 23008KT P6SM SCT040=

USA.gov is the U.S. government's official web portal to all federal, state and local government web resources and services.